createdAt,value
2019-05-15T00:00:48.104Z,59.33
2019-05-15T00:01:48.776Z,58.95
2019-05-15T00:02:48.174Z,58.54
2019-05-15T00:03:49.107Z,59.05
2019-05-15T00:04:49.010Z,58.03
2019-05-15T00:05:49.331Z,58.54
2019-05-15T00:06:48.580Z,58.44
2019-05-15T00:07:48.390Z,58.33
2019-05-15T00:08:48.039Z,57.61
2019-05-15T00:09:48.971Z,57.41
2019-05-15T00:10:48.417Z,57.41
2019-05-15T00:11:48.176Z,57.92
2019-05-15T00:12:48.667Z,56.59
2019-05-15T00:13:48.345Z,57.00
2019-05-15T00:14:48.482Z,57.00
2019-05-15T00:15:48.132Z,56.59
2019-05-15T00:16:48.213Z,56.69
2019-05-15T00:17:48.590Z,57.07
2019-05-15T00:18:48.204Z,56.79
2019-05-15T00:19:48.578Z,56.90
2019-05-15T00:20:49.360Z,56.90
2019-05-15T00:21:48.838Z,56.28
2019-05-15T00:22:48.422Z,57.00
2019-05-15T00:23:46.564Z,56.49
2019-05-15T00:24:48.674Z,56.18
2019-05-15T00:25:48.732Z,56.49
2019-05-15T00:26:48.098Z,56.49
2019-05-15T00:27:48.938Z,56.59
2019-05-15T00:28:47.977Z,56.49
2019-05-15T00:29:48.613Z,56.41
2019-05-15T00:30:48.143Z,55.98
2019-05-15T00:31:48.538Z,56.07
2019-05-15T00:32:48.528Z,56.30
2019-05-15T00:33:48.263Z,56.30
2019-05-15T00:34:48.685Z,56.51
2019-05-15T00:35:48.444Z,56.41
2019-05-15T00:36:48.731Z,56.28
2019-05-15T00:37:46.434Z,56.51
2019-05-15T00:38:48.294Z,56.51
2019-05-15T00:39:48.430Z,56.10
2019-05-15T00:40:46.362Z,55.90
2019-05-15T00:41:53.312Z,56.10
2019-05-15T00:42:48.768Z,56.00
2019-05-15T00:43:46.359Z,56.00
2019-05-15T00:44:46.296Z,56.10
2019-05-15T00:45:48.693Z,56.10
2019-05-15T00:46:48.677Z,55.79
2019-05-15T00:47:48.496Z,55.90
2019-05-15T00:48:48.552Z,56.41
2019-05-15T00:49:48.616Z,55.90
2019-05-15T00:50:48.360Z,55.90
2019-05-15T00:51:48.514Z,56.00
2019-05-15T00:52:48.279Z,56.00
2019-05-15T00:53:48.250Z,56.10
2019-05-15T00:54:48.251Z,56.00
2019-05-15T00:55:48.487Z,55.79
2019-05-15T00:56:48.345Z,56.10
2019-05-15T00:57:48.340Z,55.59
2019-05-15T00:58:48.144Z,56.13
2019-05-15T00:59:48.328Z,56.13
2019-05-15T01:00:48.502Z,56.13
2019-05-15T01:01:48.605Z,55.51
2019-05-15T01:02:46.084Z,55.92
2019-05-15T01:03:46.112Z,56.02
2019-05-15T01:04:48.006Z,56.23
2019-05-15T01:05:48.078Z,56.13
2019-05-15T01:06:46.048Z,56.02
2019-05-15T01:07:47.946Z,56.23
2019-05-15T01:08:48.301Z,56.02
2019-05-15T01:09:46.006Z,56.02
2019-05-15T01:10:45.987Z,56.34
2019-05-15T01:11:45.990Z,56.36
2019-05-15T01:12:45.982Z,56.43
2019-05-15T01:13:48.034Z,55.95
2019-05-15T01:14:45.961Z,55.92
2019-05-15T01:15:45.956Z,56.46
2019-05-15T01:16:45.932Z,56.56
2019-05-15T01:17:45.938Z,56.56
2019-05-15T01:18:45.947Z,56.67
2019-05-15T01:19:48.088Z,56.36
2019-05-15T01:20:45.882Z,56.15
2019-05-15T01:21:47.904Z,57.18
2019-05-15T01:22:48.356Z,56.26
2019-05-15T01:23:48.251Z,56.46
2019-05-15T01:24:48.372Z,56.87
2019-05-15T01:25:48.047Z,57.08
2019-05-15T01:26:45.813Z,57.49
2019-05-15T01:27:45.827Z,57.18
2019-05-15T01:28:45.843Z,56.98
2019-05-15T01:29:45.802Z,57.08
2019-05-15T01:30:45.823Z,56.98
2019-05-15T01:31:45.783Z,56.77
2019-05-15T01:32:45.814Z,57.18
2019-05-15T01:33:47.979Z,57.39
2019-05-15T01:34:45.782Z,56.77
2019-05-15T01:35:45.765Z,57.00
2019-05-15T01:36:45.735Z,57.21
2019-05-15T01:37:45.759Z,57.31
2019-05-15T01:38:47.967Z,57.00
2019-05-15T01:39:45.687Z,56.90
2019-05-15T01:40:45.674Z,57.31
2019-05-15T01:41:49.330Z,57.00
2019-05-15T01:42:45.643Z,56.79
2019-05-15T01:43:45.674Z,57.51
2019-05-15T01:44:45.684Z,57.03
2019-05-15T01:45:48.117Z,56.79
2019-05-15T01:46:48.116Z,56.79
2019-05-15T01:47:47.885Z,56.82
2019-05-15T01:48:45.600Z,56.82
2019-05-15T01:49:45.560Z,56.72
2019-05-15T01:50:45.595Z,56.72
2019-05-15T01:51:47.824Z,56.70
2019-05-15T01:52:47.886Z,56.93
2019-05-15T01:53:47.858Z,57.34
2019-05-15T01:54:45.526Z,56.82
2019-05-15T01:55:45.497Z,56.72
2019-05-15T01:56:45.538Z,56.93
2019-05-15T01:57:45.504Z,57.23
2019-05-15T01:58:45.510Z,56.90
2019-05-15T01:59:56.516Z,56.82
2019-05-15T02:00:48.393Z,57.03
2019-05-15T02:01:45.437Z,57.03
2019-05-15T02:02:45.448Z,56.72
2019-05-15T02:03:45.467Z,57.44
2019-05-15T02:04:45.404Z,57.34
2019-05-15T02:05:45.389Z,57.54
2019-05-15T02:06:45.377Z,57.95
2019-05-15T02:07:45.376Z,57.85
2019-05-15T02:08:45.406Z,57.03
2019-05-15T02:09:45.384Z,56.82
2019-05-15T02:10:45.386Z,57.75
2019-05-15T02:11:45.347Z,57.54
2019-05-15T02:12:45.357Z,56.93
2019-05-15T02:13:45.402Z,57.95
2019-05-15T02:14:45.337Z,56.82
2019-05-15T02:15:45.356Z,57.95
2019-05-15T02:16:45.289Z,57.13
2019-05-15T02:17:45.258Z,57.44
2019-05-15T02:18:45.270Z,57.64
2019-05-15T02:19:45.289Z,57.16
2019-05-15T02:20:45.228Z,57.34
2019-05-15T02:21:45.238Z,57.34
2019-05-15T02:22:45.221Z,57.36
2019-05-15T02:23:45.197Z,57.88
2019-05-15T02:24:45.204Z,57.67
2019-05-15T02:25:45.196Z,57.78
2019-05-15T02:26:45.186Z,57.57
2019-05-15T02:27:45.328Z,57.46
2019-05-15T02:28:45.178Z,58.08
2019-05-15T02:29:45.127Z,57.88
2019-05-15T02:30:45.117Z,57.88
2019-05-15T02:31:45.151Z,57.70
2019-05-15T02:32:45.123Z,57.80
2019-05-15T02:33:45.081Z,57.80
2019-05-15T02:34:45.161Z,57.46
2019-05-15T02:35:45.114Z,57.90
2019-05-15T02:36:45.117Z,58.52
2019-05-15T02:37:45.092Z,58.62
2019-05-15T02:38:45.052Z,58.01
2019-05-15T02:39:45.049Z,58.11
2019-05-15T02:40:45.036Z,58.21
2019-05-15T02:41:45.004Z,58.52
2019-05-15T02:42:45.025Z,58.21
2019-05-15T02:43:45.032Z,58.21
2019-05-15T02:44:44.996Z,59.03
2019-05-15T02:45:44.957Z,58.83
2019-05-15T02:46:44.983Z,59.14
2019-05-15T02:47:44.927Z,59.34
2019-05-15T02:48:44.960Z,58.86
2019-05-15T02:49:44.916Z,59.27
2019-05-15T02:50:44.953Z,59.17
2019-05-15T02:51:44.903Z,58.65
2019-05-15T02:52:45.744Z,59.47
2019-05-15T02:53:44.886Z,59.89
2019-05-15T02:54:44.901Z,59.27
2019-05-15T02:55:44.883Z,58.96
2019-05-15T02:56:44.907Z,59.58
2019-05-15T02:57:44.866Z,59.81
2019-05-15T02:58:44.907Z,59.27
2019-05-15T02:59:44.846Z,59.58
2019-05-15T03:02:09.851Z,59.61
2019-05-15T03:03:09.271Z,59.70
2019-05-15T03:04:09.205Z,59.70
2019-05-15T03:05:09.276Z,60.22
2019-05-15T03:06:09.657Z,60.53
2019-05-15T03:07:09.409Z,60.53
2019-05-15T03:08:09.305Z,60.63
2019-05-15T03:09:09.521Z,60.53
2019-05-15T03:10:09.361Z,60.33
2019-05-15T03:11:09.500Z,60.12
2019-05-15T03:12:09.110Z,60.22
2019-05-15T03:13:09.390Z,60.74
2019-05-15T03:14:09.088Z,60.63
2019-05-15T03:15:09.611Z,60.84
2019-05-15T03:16:09.808Z,60.46
2019-05-15T03:17:09.503Z,60.53
2019-05-15T03:18:09.517Z,60.63
2019-05-15T03:19:09.709Z,61.07
2019-05-15T03:20:09.950Z,60.87
2019-05-15T03:21:09.298Z,60.63
2019-05-15T03:22:09.453Z,60.66
2019-05-15T03:23:09.566Z,60.56
2019-05-15T03:24:09.831Z,60.66
2019-05-15T03:25:10.197Z,60.56
2019-05-15T03:26:08.880Z,60.87
2019-05-15T03:27:09.155Z,60.77
2019-05-15T03:28:10.087Z,60.77
2019-05-15T03:29:09.487Z,60.66
2019-05-15T03:30:12.238Z,60.46
2019-05-15T03:31:26.204Z,60.56
2019-05-15T03:32:22.958Z,60.35
2019-05-15T03:33:15.812Z,60.56
2019-05-15T03:34:19.930Z,60.84
2019-05-15T03:35:13.278Z,60.63
2019-05-15T03:36:12.921Z,60.66
2019-05-15T03:37:11.606Z,60.63
2019-05-15T03:38:09.321Z,60.87
2019-05-15T03:39:09.512Z,60.87
2019-05-15T03:40:06.355Z,61.38
2019-05-15T03:41:06.328Z,61.07
2019-05-15T03:42:09.444Z,61.07
2019-05-15T03:43:08.871Z,60.97
2019-05-15T03:44:09.213Z,61.05
2019-05-15T03:45:09.635Z,61.18
2019-05-15T03:46:09.026Z,60.87
2019-05-15T03:47:09.170Z,60.77
2019-05-15T03:48:09.412Z,61.07
2019-05-15T03:49:08.646Z,61.21
2019-05-15T03:50:08.895Z,61.59
2019-05-15T03:51:09.210Z,61.72
2019-05-15T03:52:09.766Z,61.93
2019-05-15T03:53:09.793Z,61.82
2019-05-15T03:54:09.183Z,61.93
2019-05-15T03:55:10.120Z,62.24
2019-05-15T03:56:09.377Z,61.93
2019-05-15T03:57:06.134Z,62.34
2019-05-15T03:58:09.535Z,61.93
2019-05-15T03:59:09.058Z,62.03
2019-05-15T04:00:09.332Z,62.24
2019-05-15T04:01:23.632Z,62.34
2019-05-15T04:02:08.675Z,62.13
2019-05-15T04:03:06.068Z,62.24
2019-05-15T04:04:09.430Z,62.24
2019-05-15T04:05:06.119Z,62.44
2019-05-15T04:06:06.039Z,62.44
2019-05-15T04:07:09.152Z,62.34
2019-05-15T04:08:06.033Z,62.34
2019-05-15T04:09:09.299Z,62.03
2019-05-15T04:10:09.539Z,62.44
2019-05-15T04:11:08.886Z,62.65
2019-05-15T04:12:09.187Z,62.68
2019-05-15T04:13:09.056Z,62.44
2019-05-15T04:14:05.985Z,62.44
2019-05-15T04:15:06.013Z,62.34
2019-05-15T04:16:05.975Z,62.54
2019-05-15T04:17:08.842Z,62.13
2019-05-15T04:18:08.969Z,62.13
2019-05-15T04:19:05.890Z,61.93
2019-05-15T04:20:05.924Z,62.24
2019-05-15T04:21:08.876Z,61.93
2019-05-15T04:22:08.971Z,62.34
2019-05-15T04:23:05.865Z,62.44
2019-05-15T04:24:05.854Z,62.24
2019-05-15T04:25:05.895Z,62.10
2019-05-15T04:26:08.942Z,62.34
2019-05-15T04:27:09.797Z,62.24
2019-05-15T04:28:05.797Z,62.13
2019-05-15T04:29:09.490Z,62.34
2019-05-15T04:30:05.793Z,62.24
2019-05-15T04:31:05.773Z,61.82
2019-05-15T04:32:06.294Z,62.13
2019-05-15T04:33:09.069Z,61.90
2019-05-15T04:34:08.909Z,61.93
2019-05-15T04:35:08.932Z,61.69
2019-05-15T04:36:05.692Z,61.69
2019-05-15T04:37:05.672Z,61.59
2019-05-15T04:38:09.062Z,61.28
2019-05-15T04:39:05.674Z,61.49
2019-05-15T04:40:09.222Z,61.38
2019-05-15T04:41:09.228Z,61.49
2019-05-15T04:42:08.105Z,61.28
2019-05-15T04:43:05.658Z,61.28
2019-05-15T04:44:05.609Z,61.49
2019-05-15T04:45:05.647Z,60.77
2019-05-15T04:46:05.578Z,60.87
2019-05-15T04:47:05.587Z,61.05
2019-05-15T04:48:05.563Z,61.28
2019-05-15T04:49:09.035Z,61.28
2019-05-15T04:50:08.598Z,60.97
2019-05-15T04:51:05.532Z,61.18
2019-05-15T04:52:05.516Z,60.97
2019-05-15T04:53:05.513Z,59.70
2019-05-15T04:54:05.514Z,60.12
2019-05-15T04:55:05.492Z,60.53
2019-05-15T04:56:05.509Z,60.02
2019-05-15T04:57:05.467Z,60.12
2019-05-15T04:58:05.476Z,60.22
2019-05-15T04:59:05.453Z,60.74
2019-05-15T05:00:05.416Z,60.22
2019-05-15T05:01:08.955Z,59.50
2019-05-15T05:02:25.514Z,59.50
2019-05-15T05:03:09.852Z,59.68
2019-05-15T05:04:05.386Z,59.78
2019-05-15T05:05:05.368Z,58.96
2019-05-15T05:06:05.392Z,58.96
2019-05-15T05:07:05.363Z,58.31
2019-05-15T05:08:05.325Z,58.93
2019-05-15T05:09:05.321Z,58.11
2019-05-15T05:10:05.315Z,58.21
2019-05-15T05:11:05.336Z,58.21
2019-05-15T05:12:05.298Z,57.50
2019-05-15T05:13:08.494Z,57.80
2019-05-15T05:14:08.258Z,57.08
2019-05-15T05:15:05.266Z,57.18
2019-05-15T05:16:05.296Z,57.16
2019-05-15T05:17:05.228Z,56.54
2019-05-15T05:18:05.217Z,56.02
2019-05-15T05:19:05.219Z,55.82
2019-05-15T05:20:05.218Z,56.02
2019-05-15T05:21:07.609Z,55.49
2019-05-15T05:22:05.186Z,55.90
2019-05-15T05:23:05.157Z,54.87
2019-05-15T05:24:05.162Z,53.53
2019-05-15T05:25:05.151Z,54.46
2019-05-15T05:26:08.186Z,54.05
2019-05-15T05:27:08.592Z,54.02
2019-05-15T05:28:05.116Z,53.92
2019-05-15T05:29:05.113Z,52.59
2019-05-15T05:30:05.123Z,52.79
2019-05-15T05:31:05.122Z,53.20
2019-05-15T05:32:05.076Z,52.79
2019-05-15T05:33:05.069Z,52.59
2019-05-15T05:34:05.056Z,52.97
2019-05-15T05:35:05.036Z,52.15
2019-05-15T05:36:05.065Z,51.53
2019-05-15T05:37:05.003Z,51.74
2019-05-15T05:38:04.999Z,51.74
2019-05-15T05:39:05.003Z,52.46
2019-05-15T05:40:04.996Z,50.99
2019-05-15T05:41:05.013Z,51.12
2019-05-15T05:42:04.970Z,51.31
2019-05-15T05:43:04.971Z,51.72
2019-05-15T05:44:04.928Z,51.20
2019-05-15T05:45:04.930Z,51.51
2019-05-15T05:46:04.990Z,51.10
2019-05-15T05:47:04.920Z,50.59
2019-05-15T05:48:04.905Z,49.26
2019-05-15T05:49:04.877Z,49.97
2019-05-15T05:50:04.883Z,50.05
2019-05-15T05:51:04.867Z,49.74
2019-05-15T05:52:04.929Z,49.74
2019-05-15T05:53:04.855Z,49.43
2019-05-15T05:54:04.867Z,48.92
2019-05-15T05:55:04.857Z,49.00
2019-05-15T05:56:04.834Z,48.69
2019-05-15T05:57:04.899Z,47.16
2019-05-15T05:58:04.841Z,46.95
2019-05-15T05:59:04.810Z,47.88
2019-05-15T06:00:04.799Z,48.08
2019-05-15T06:01:04.777Z,47.26
2019-05-15T06:02:04.787Z,48.08
2019-05-15T06:03:04.779Z,48.18
2019-05-15T06:04:04.717Z,48.90
2019-05-15T06:05:04.703Z,48.49
2019-05-15T06:06:04.747Z,47.75
2019-05-15T06:07:09.985Z,47.16
2019-05-15T06:08:04.669Z,46.72
2019-05-15T06:09:04.693Z,46.95
2019-05-15T06:10:04.661Z,47.44
2019-05-15T06:11:04.667Z,47.75
2019-05-15T06:12:04.679Z,47.13
2019-05-15T06:13:04.628Z,46.93
2019-05-15T06:14:04.628Z,46.42
2019-05-15T06:15:04.618Z,45.09
2019-05-15T06:16:04.612Z,46.83
2019-05-15T06:17:04.626Z,45.78
2019-05-15T06:18:04.579Z,46.50
2019-05-15T06:19:04.547Z,46.60
2019-05-15T06:20:04.584Z,46.39
2019-05-15T06:21:04.568Z,44.96
2019-05-15T06:22:04.564Z,45.17
2019-05-15T06:23:04.547Z,46.70
2019-05-15T06:24:05.978Z,45.89
2019-05-15T06:25:05.200Z,44.76
2019-05-15T06:26:04.532Z,44.86
2019-05-15T06:27:04.512Z,44.24
2019-05-15T06:28:04.446Z,45.27
2019-05-15T06:29:04.475Z,45.47
2019-05-15T06:30:04.449Z,44.04
2019-05-15T06:31:04.434Z,44.23
2019-05-15T06:32:04.454Z,44.32
2019-05-15T06:33:10.666Z,45.15
2019-05-15T06:34:05.392Z,45.04
2019-05-15T06:35:04.365Z,45.45
2019-05-15T06:36:04.373Z,44.12
2019-05-15T06:37:04.366Z,44.23
2019-05-15T06:38:04.361Z,44.92
2019-05-15T06:39:04.381Z,44.41
2019-05-15T06:40:04.327Z,42.87
2019-05-15T06:41:04.301Z,42.97
2019-05-15T06:42:04.356Z,42.57
2019-05-15T06:43:04.278Z,41.85
2019-05-15T06:44:04.279Z,41.44
2019-05-15T06:45:04.259Z,41.75
2019-05-15T06:46:04.254Z,42.46
2019-05-15T06:47:04.249Z,42.05
2019-05-15T06:48:04.217Z,41.93
2019-05-15T06:49:04.244Z,42.65
2019-05-15T06:50:04.235Z,42.85
2019-05-15T06:51:04.223Z,41.93
2019-05-15T06:52:04.222Z,41.32
2019-05-15T06:53:04.205Z,41.83
2019-05-15T06:54:04.176Z,41.61
2019-05-15T06:55:04.153Z,42.02
2019-05-15T06:56:04.164Z,42.02
2019-05-15T06:57:04.143Z,41.81
2019-05-15T06:58:04.115Z,41.81
2019-05-15T06:59:04.138Z,41.81
2019-05-15T07:00:04.138Z,39.97
2019-05-15T07:01:04.111Z,40.38
2019-05-15T07:02:04.116Z,41.38
2019-05-15T07:03:16.852Z,40.56
2019-05-15T07:04:05.063Z,40.36
2019-05-15T07:05:04.058Z,41.18
2019-05-15T07:06:04.044Z,39.75
2019-05-15T07:07:04.034Z,39.75
2019-05-15T07:08:04.052Z,38.93
2019-05-15T07:09:04.023Z,39.64
2019-05-15T07:10:04.025Z,40.77
2019-05-15T07:11:03.966Z,39.62
2019-05-15T07:12:04.002Z,40.46
2019-05-15T07:13:03.940Z,40.65
2019-05-15T07:14:03.957Z,41.08
2019-05-15T07:15:03.945Z,39.95
2019-05-15T07:16:03.957Z,40.85
2019-05-15T07:17:03.962Z,39.83
2019-05-15T07:18:03.928Z,39.22
2019-05-15T07:19:03.919Z,39.53
2019-05-15T07:20:03.880Z,38.91
2019-05-15T07:21:03.854Z,39.14
2019-05-15T07:22:03.910Z,39.34
2019-05-15T07:23:03.854Z,39.34
2019-05-15T07:24:03.821Z,39.03
2019-05-15T07:25:03.822Z,39.24
2019-05-15T07:26:03.797Z,39.42
2019-05-15T07:27:03.857Z,38.91
2019-05-15T07:28:03.797Z,39.12
2019-05-15T07:29:03.776Z,38.30
2019-05-15T07:30:03.751Z,38.40
2019-05-15T07:31:03.747Z,38.09
2019-05-15T07:32:03.748Z,38.09
2019-05-15T07:33:03.747Z,39.12
2019-05-15T07:34:03.726Z,39.53
2019-05-15T07:35:03.778Z,37.89
2019-05-15T07:36:03.750Z,37.98
2019-05-15T07:37:03.755Z,38.69
2019-05-15T07:38:03.703Z,39.20
2019-05-15T07:39:03.694Z,38.39
2019-05-15T07:40:03.666Z,37.67
2019-05-15T07:41:04.565Z,39.22
2019-05-15T07:42:03.708Z,39.00
2019-05-15T07:43:03.630Z,38.28
2019-05-15T07:44:03.598Z,37.77
2019-05-15T07:45:03.651Z,38.08
2019-05-15T07:46:03.625Z,37.98
2019-05-15T07:47:03.629Z,38.08
2019-05-15T07:48:03.565Z,38.28
2019-05-15T07:49:03.557Z,39.32
2019-05-15T07:50:03.551Z,38.39
2019-05-15T07:51:03.540Z,39.00
2019-05-15T07:52:03.604Z,38.81
2019-05-15T07:53:03.515Z,39.51
2019-05-15T07:54:03.488Z,39.20
2019-05-15T07:55:03.477Z,39.30
2019-05-15T07:56:03.483Z,38.08
2019-05-15T07:57:03.484Z,39.18
2019-05-15T07:58:03.461Z,39.28
2019-05-15T07:59:03.502Z,38.78
2019-05-15T08:00:03.434Z,38.18
2019-05-15T08:01:05.403Z,38.79
2019-05-15T08:02:03.427Z,38.37
2019-05-15T08:03:03.439Z,38.78
2019-05-15T08:04:22.586Z,39.18
2019-05-15T08:05:04.393Z,39.49
2019-05-15T08:06:03.367Z,38.14
2019-05-15T08:07:03.363Z,38.67
2019-05-15T08:08:03.389Z,37.94
2019-05-15T08:09:03.336Z,38.16
2019-05-15T08:10:03.327Z,38.06
2019-05-15T08:11:16.246Z,38.87
2019-05-15T08:12:04.304Z,38.57
2019-05-15T08:13:03.358Z,38.16
2019-05-15T08:14:03.758Z,39.06
2019-05-15T08:15:03.276Z,38.87
2019-05-15T08:16:03.249Z,37.74
2019-05-15T08:17:03.231Z,38.45
2019-05-15T08:18:09.185Z,38.04
2019-05-15T08:19:04.204Z,39.47
2019-05-15T08:20:03.247Z,39.04
2019-05-15T08:21:03.189Z,39.35
2019-05-15T08:22:03.185Z,37.92
2019-05-15T08:23:03.160Z,37.72
2019-05-15T08:24:03.189Z,38.24
2019-05-15T08:25:06.704Z,37.51
2019-05-15T08:26:03.134Z,37.92
2019-05-15T08:27:03.116Z,38.24
2019-05-15T08:28:03.124Z,38.04
2019-05-15T08:29:03.105Z,37.33
2019-05-15T08:30:03.150Z,38.12
2019-05-15T08:31:06.162Z,38.14
2019-05-15T08:32:03.081Z,37.43
2019-05-15T08:33:03.097Z,38.24
2019-05-15T08:34:13.649Z,38.12
2019-05-15T08:35:04.127Z,38.53
2019-05-15T08:36:03.042Z,38.12
2019-05-15T08:37:03.018Z,38.24
2019-05-15T08:38:03.024Z,38.02
2019-05-15T08:39:03.012Z,38.12
2019-05-15T08:40:02.990Z,38.02
2019-05-15T08:41:02.988Z,37.72
2019-05-15T08:42:02.969Z,38.02
2019-05-15T08:43:02.940Z,38.23
2019-05-15T08:44:02.927Z,38.12
2019-05-15T08:45:02.940Z,37.62
2019-05-15T08:46:02.957Z,37.41
2019-05-15T08:47:02.925Z,37.62
2019-05-15T08:48:02.894Z,38.12
2019-05-15T08:49:02.871Z,38.23
2019-05-15T08:50:02.875Z,37.80
2019-05-15T08:51:02.919Z,37.80
2019-05-15T08:52:02.867Z,37.51
2019-05-15T08:53:02.853Z,39.33
2019-05-15T08:54:02.839Z,38.82
2019-05-15T08:55:02.818Z,38.51
2019-05-15T08:56:02.873Z,39.13
2019-05-15T08:57:02.811Z,37.49
2019-05-15T08:58:08.042Z,37.80
2019-05-15T08:59:03.782Z,38.11
2019-05-15T09:00:02.744Z,37.68
2019-05-15T09:01:02.822Z,37.99
2019-05-15T09:02:02.762Z,37.60
2019-05-15T09:03:02.734Z,38.51
2019-05-15T09:04:02.723Z,39.42
2019-05-15T09:05:02.698Z,37.88
2019-05-15T09:06:02.748Z,37.99
2019-05-15T09:07:02.704Z,37.38
2019-05-15T09:08:02.683Z,38.19
2019-05-15T09:09:02.686Z,37.68
2019-05-15T09:10:02.668Z,38.09
2019-05-15T09:11:02.662Z,38.40
2019-05-15T09:12:02.649Z,37.88
2019-05-15T09:13:02.648Z,37.87
2019-05-15T09:14:02.632Z,38.28
2019-05-15T09:15:02.628Z,37.97
2019-05-15T09:16:02.618Z,37.97
2019-05-15T09:17:02.561Z,38.07
2019-05-15T09:18:14.385Z,38.07
2019-05-15T09:19:03.591Z,37.66
2019-05-15T09:20:02.544Z,37.66
2019-05-15T09:21:02.681Z,37.97
2019-05-15T09:22:02.548Z,37.87
2019-05-15T09:23:02.521Z,37.97
2019-05-15T09:24:02.485Z,37.46
2019-05-15T09:25:02.545Z,37.05
2019-05-15T09:26:02.523Z,37.77
2019-05-15T09:27:02.528Z,38.48
2019-05-15T09:28:02.457Z,37.97
2019-05-15T09:29:02.438Z,37.97
2019-05-15T09:30:02.425Z,37.36
2019-05-15T09:31:02.425Z,37.56
2019-05-15T09:32:02.458Z,37.46
2019-05-15T09:33:02.471Z,37.56
2019-05-15T09:34:02.399Z,37.95
2019-05-15T09:35:02.410Z,37.95
2019-05-15T09:36:02.340Z,38.15
2019-05-15T09:37:02.434Z,37.04
2019-05-15T09:38:02.341Z,37.24
2019-05-15T09:39:02.340Z,37.54
2019-05-15T09:40:02.332Z,37.65
2019-05-15T09:41:02.336Z,37.95
2019-05-15T09:42:02.346Z,37.95
2019-05-15T09:43:02.287Z,38.26
2019-05-15T09:44:02.284Z,37.54
2019-05-15T09:45:02.278Z,37.45
2019-05-15T09:46:02.241Z,37.85
2019-05-15T09:47:02.294Z,37.46
2019-05-15T09:48:02.258Z,37.95
2019-05-15T09:49:02.243Z,37.75
2019-05-15T09:50:02.199Z,37.77
2019-05-15T09:51:02.204Z,37.85
2019-05-15T09:52:02.241Z,37.65
2019-05-15T09:53:02.204Z,37.85
2019-05-15T09:54:02.199Z,38.46
2019-05-15T09:55:02.321Z,38.15
2019-05-15T09:56:02.156Z,37.65
2019-05-15T09:57:02.206Z,38.46
2019-05-15T09:58:02.139Z,37.95
2019-05-15T09:59:02.138Z,37.32
2019-05-15T10:00:02.111Z,37.84
2019-05-15T10:01:02.095Z,38.06
2019-05-15T10:02:02.155Z,38.26
2019-05-15T10:03:02.088Z,37.85
2019-05-15T10:04:02.059Z,37.54
2019-05-15T10:05:06.505Z,38.15
2019-05-15T10:06:03.042Z,38.26
2019-05-15T10:07:02.056Z,37.95
2019-05-15T10:08:02.045Z,38.15
2019-05-15T10:09:02.014Z,38.06
2019-05-15T10:10:02.031Z,38.24
2019-05-15T10:11:02.002Z,39.06
2019-05-15T10:12:02.077Z,38.14
2019-05-15T10:13:01.985Z,37.23
2019-05-15T10:14:01.940Z,37.53
2019-05-15T10:15:01.931Z,37.53
2019-05-15T10:16:01.911Z,37.53
2019-05-15T10:17:02.093Z,38.04
2019-05-15T10:18:01.901Z,37.92
2019-05-15T10:19:01.880Z,37.53
2019-05-15T10:20:01.870Z,38.12
2019-05-15T10:21:01.892Z,37.92
2019-05-15T10:22:01.880Z,38.22
2019-05-15T10:23:01.842Z,38.22
2019-05-15T10:24:01.833Z,37.92
2019-05-15T10:25:01.802Z,38.12
2019-05-15T10:26:01.845Z,37.92
2019-05-15T10:27:01.830Z,38.02
2019-05-15T10:28:01.784Z,37.82
2019-05-15T10:29:01.753Z,38.22
2019-05-15T10:30:01.774Z,38.73
2019-05-15T10:31:01.748Z,38.02
2019-05-15T10:32:01.771Z,39.04
2019-05-15T10:33:01.773Z,38.53
2019-05-15T10:34:01.719Z,38.93
2019-05-15T10:35:01.717Z,39.24
2019-05-15T10:36:01.710Z,38.22
2019-05-15T10:37:01.726Z,38.53
2019-05-15T10:38:01.673Z,38.83
2019-05-15T10:39:01.685Z,39.64
2019-05-15T10:40:01.661Z,39.54
2019-05-15T10:41:08.773Z,38.83
2019-05-15T10:42:02.661Z,37.61
2019-05-15T10:43:01.644Z,39.24
2019-05-15T10:44:01.604Z,39.34
2019-05-15T10:45:01.594Z,38.53
2019-05-15T10:46:01.586Z,38.43
2019-05-15T10:47:01.575Z,38.41
2019-05-15T10:48:01.630Z,38.10
2019-05-15T10:49:01.550Z,37.80
2019-05-15T10:50:01.536Z,37.49
2019-05-15T10:51:06.565Z,37.80
2019-05-15T10:52:02.538Z,38.31
2019-05-15T10:53:01.534Z,37.39
2019-05-15T10:54:01.490Z,37.49
2019-05-15T10:55:01.481Z,37.19
2019-05-15T10:56:02.676Z,37.90
2019-05-15T10:57:01.451Z,37.90
2019-05-15T10:58:01.481Z,38.09
2019-05-15T10:59:01.455Z,37.70
2019-05-15T11:00:01.425Z,36.38
2019-05-15T11:01:02.884Z,36.99
2019-05-15T11:02:01.464Z,36.99
2019-05-15T11:03:01.436Z,37.70
2019-05-15T11:04:01.385Z,37.90
2019-05-15T11:05:01.424Z,38.18
2019-05-15T11:06:01.378Z,38.09
2019-05-15T11:07:01.402Z,37.17
2019-05-15T11:08:01.394Z,35.95
2019-05-15T11:09:01.349Z,35.04
2019-05-15T11:10:01.319Z,35.34
2019-05-15T11:11:01.351Z,35.04
2019-05-15T11:12:01.320Z,36.36
2019-05-15T11:13:01.340Z,36.56
2019-05-15T11:14:01.278Z,36.85
2019-05-15T11:15:01.261Z,36.36
2019-05-15T11:16:01.251Z,37.35
2019-05-15T11:17:01.237Z,36.65
2019-05-15T11:18:01.258Z,37.26
2019-05-15T11:19:01.225Z,35.22
2019-05-15T11:20:01.186Z,35.33
2019-05-15T11:21:01.237Z,35.53
2019-05-15T11:22:01.187Z,35.53
2019-05-15T11:23:01.229Z,35.94
2019-05-15T11:24:01.158Z,36.04
2019-05-15T11:25:01.191Z,36.24
2019-05-15T11:26:01.132Z,35.12
2019-05-15T11:27:01.266Z,35.02
2019-05-15T11:28:01.143Z,36.54
2019-05-15T11:29:01.121Z,36.34
2019-05-15T11:30:01.087Z,35.34
2019-05-15T11:31:01.065Z,36.04
2019-05-15T11:32:01.090Z,35.12
2019-05-15T11:33:01.125Z,36.75
2019-05-15T11:34:01.065Z,35.33
2019-05-15T11:35:04.248Z,35.22
2019-05-15T11:36:05.899Z,35.22
2019-05-15T11:37:02.033Z,35.53
2019-05-15T11:38:01.045Z,35.94
2019-05-15T11:39:01.008Z,37.05
2019-05-15T11:40:00.991Z,36.95
2019-05-15T11:41:00.978Z,36.95
2019-05-15T11:42:00.999Z,36.85
2019-05-15T11:43:01.021Z,37.26
2019-05-15T11:44:00.947Z,37.05
2019-05-15T11:45:00.928Z,37.35
2019-05-15T11:46:00.922Z,37.26
2019-05-15T11:47:00.890Z,37.15
2019-05-15T11:48:01.131Z,36.75
2019-05-15T11:49:00.891Z,37.46
2019-05-15T11:50:00.867Z,37.87
2019-05-15T11:51:00.858Z,37.05
2019-05-15T11:52:00.877Z,37.26
2019-05-15T11:53:00.881Z,36.24
2019-05-15T11:54:00.843Z,36.34
2019-05-15T11:55:00.821Z,36.75
2019-05-15T11:56:00.819Z,37.05
2019-05-15T11:57:00.804Z,35.63
2019-05-15T11:58:00.790Z,35.82
2019-05-15T11:59:00.788Z,36.34
2019-05-15T12:00:00.751Z,35.22
2019-05-15T12:01:00.882Z,36.12
2019-05-15T12:02:00.752Z,36.53
2019-05-15T12:03:00.742Z,36.32
2019-05-15T12:04:00.731Z,37.24
2019-05-15T12:05:00.695Z,37.24
2019-05-15T12:06:14.782Z,35.80
2019-05-15T12:07:02.729Z,36.21
2019-05-15T12:08:00.681Z,35.60
2019-05-15T12:09:00.677Z,35.80
2019-05-15T12:10:00.642Z,35.29
2019-05-15T12:11:00.644Z,36.30
2019-05-15T12:12:00.673Z,36.00
2019-05-15T12:13:00.671Z,35.38
2019-05-15T12:14:00.619Z,37.00
2019-05-15T12:15:00.591Z,36.19
2019-05-15T12:16:00.576Z,37.00
2019-05-15T12:17:10.432Z,36.69
2019-05-15T12:18:01.607Z,35.88
2019-05-15T12:19:08.996Z,36.19
2019-05-15T12:20:06.423Z,35.17
2019-05-15T12:21:01.534Z,36.19
2019-05-15T12:22:00.509Z,36.47
2019-05-15T12:23:00.529Z,35.36
2019-05-15T12:24:00.544Z,34.85
2019-05-15T12:25:01.159Z,35.16
2019-05-15T12:26:00.507Z,35.77
2019-05-15T12:27:13.841Z,36.07
2019-05-15T12:28:01.441Z,35.16
2019-05-15T12:29:00.481Z,36.17
2019-05-15T12:30:00.443Z,35.36
2019-05-15T12:31:00.422Z,35.77
2019-05-15T12:32:20.120Z,35.97
2019-05-15T12:33:01.410Z,36.27
2019-05-15T12:34:00.428Z,36.27
2019-05-15T12:35:00.412Z,35.16
2019-05-15T12:36:00.373Z,36.27
2019-05-15T12:37:00.382Z,36.05
2019-05-15T12:38:00.353Z,36.27
2019-05-15T12:39:09.054Z,35.66
2019-05-15T13:00:01.095Z,36.07
2019-05-15T13:01:00.077Z,35.86
2019-05-15T13:02:00.075Z,36.07
2019-05-15T13:03:00.089Z,37.07
2019-05-15T13:04:00.130Z,35.55
2019-05-15T13:05:00.084Z,35.85
2019-05-15T13:06:00.048Z,35.63
2019-05-15T13:07:12.865Z,35.33
2019-05-15T13:08:01.021Z,35.22
2019-05-15T13:09:00.015Z,35.43
2019-05-15T13:09:59.984Z,35.22
2019-05-15T13:10:59.983Z,36.04
2019-05-15T13:11:59.974Z,36.34
2019-05-15T13:13:05.181Z,36.66
2019-05-15T13:14:00.999Z,36.04